Time;durP1;ratioP1;P1;durP2;ratioP2;P2;SDS_P1;SDS_P2;PMS_P1;PMS_P2;Temp;Humidity;BMP_temperature;BMP_pressure;BME280_temperature;BME280_humidity;BME280_pressure;Samples;Min_cycle;Max_cycle;Signal;HPM_P1;HPM_P2
2023/07/27 00:00:25;;;;;;;;;;;;;;;22.39;44.63;95683.00;10447409;28;1901;-68
2023/07/27 00:05:25;;;;;;;;;;;;;;;22.38;44.72;95676.91;10470040;28;2017;-67
2023/07/27 00:10:27;;;;;;;;;;;;;;;22.37;44.52;95667.44;10443446;28;1886;-68
2023/07/27 00:15:28;;;;;;;;;;;;;;;22.36;44.51;95671.13;10441778;28;2293;-68
2023/07/27 00:20:28;;;;;;;;;;;;;;;22.37;44.55;95672.72;10442735;28;1906;-68
2023/07/27 00:25:28;;;;;;;;;;;;;;;22.35;44.82;95669.59;10440226;28;1941;-68
2023/07/27 00:30:28;;;;;;;;;;;;;;;22.35;44.59;95669.59;10441149;28;2231;-69
2023/07/27 00:35:29;;;;;;;;;;;;;;;22.35;44.73;95666.16;10443333;28;2100;-68
2023/07/27 00:40:29;;;;;;;;;;;;;;;22.34;44.69;95660.09;10444991;28;4529;-68
2023/07/27 00:45:29;;;;;;;;;;;;;;;22.34;44.59;95661.97;10433382;28;2154;-68
2023/07/27 00:50:30;;;;;;;;;;;;;;;22.34;44.47;95656.69;10451471;28;2044;-68
2023/07/27 00:55:30;;;;;;;;;;;;;;;22.33;44.44;95660.38;10453061;28;2103;-68
2023/07/27 01:00:31;;;;;;;;;;;;;;;22.32;44.66;95656.94;10440815;28;2166;-68
2023/07/27 01:05:31;;;;;;;;;;;;;;;22.32;44.74;95656.94;10441366;28;2252;-67
2023/07/27 01:10:50;;;;;;;;;;;;;;;22.32;44.61;95650.88;10441289;28;2270;-68
2023/07/27 01:15:51;;;;;;;;;;;;;;;22.31;44.28;95651.97;10441229;28;2187;-68
2023/07/27 01:20:53;;;;;;;;;;;;;;;22.30;44.38;95640.59;10435898;28;1946;-68
2023/07/27 01:26:12;;;;;;;;;;;;;;;22.30;44.57;95637.16;10445266;28;2039;-68
2023/07/27 01:31:15;;;;;;;;;;;;;;;22.29;44.50;95639.03;10436508;28;2257;-69
2023/07/27 01:36:17;;;;;;;;;;;;;;;22.28;44.33;95632.19;10441950;28;4490;-68
2023/07/27 01:41:17;;;;;;;;;;;;;;;22.28;44.63;95626.91;10444831;28;1990;-68
2023/07/27 01:46:18;;;;;;;;;;;;;;;22.28;44.58;95626.91;10471705;28;1982;-68
2023/07/27 01:51:18;;;;;;;;;;;;;;;22.28;44.28;95626.09;10446202;28;1966;-68
2023/07/27 01:56:18;;;;;;;;;;;;;;;22.27;44.63;95625.34;10436301;28;2231;-68
2023/07/27 02:01:19;;;;;;;;;;;;;;;22.26;44.51;95618.47;10446001;28;1987;-68
2023/07/27 02:06:19;;;;;;;;;;;;;;;22.27;44.41;95616.63;10443664;28;2422;-67
2023/07/27 02:11:19;;;;;;;;;;;;;;;22.25;44.66;95611.66;10437309;28;2192;-68
2023/07/27 02:16:23;;;;;;;;;;;;;;;22.26;44.54;95612.41;10437940;28;2227;-67
2023/07/27 02:21:23;;;;;;;;;;;;;;;22.25;44.49;95605.56;10436133;28;2026;-68
2023/07/27 02:26:23;;;;;;;;;;;;;;;22.24;44.43;95611.91;10436248;28;1892;-68
2023/07/27 02:31:24;;;;;;;;;;;;;;;22.23;44.14;95608.50;10435449;28;1953;-69
2023/07/27 02:36:24;;;;;;;;;;;;;;;22.24;44.58;95606.63;10438264;28;4505;-68
2023/07/27 02:41:24;;;;;;;;;;;;;;;22.23;44.43;95605.88;10434863;28;1987;-69
2023/07/27 02:46:25;;;;;;;;;;;;;;;22.23;44.46;95597.94;10439430;28;1993;-66
2023/07/27 02:51:25;;;;;;;;;;;;;;;22.22;44.10;95600.84;10433391;28;1989;-68
2023/07/27 02:56:25;;;;;;;;;;;;;;;22.21;44.36;95597.44;10435390;28;1966;-68
2023/07/27 03:01:26;;;;;;;;;;;;;;;22.22;44.38;95600.84;10437801;28;2000;-69
2023/07/27 03:06:26;;;;;;;;;;;;;;;22.20;44.53;95587.94;10435799;28;1974;-68
2023/07/27 03:11:26;;;;;;;;;;;;;;;22.20;44.34;95598.50;10436157;28;1904;-69
2023/07/27 03:16:27;;;;;;;;;;;;;;;22.19;44.24;95602.22;10458338;28;1966;-68
2023/07/27 03:21:27;;;;;;;;;;;;;;;22.19;44.27;95601.44;10465314;28;2011;-69
2023/07/27 03:26:27;;;;;;;;;;;;;;;22.19;44.34;95596.94;10438099;28;1959;-68
2023/07/27 03:31:28;;;;;;;;;;;;;;;22.18;44.20;95587.44;10441937;28;1990;-68
2023/07/27 03:36:28;;;;;;;;;;;;;;;22.18;44.28;95584.03;10443125;28;4541;-68
2023/07/27 03:41:29;;;;;;;;;;;;;;;22.17;44.00;95571.91;10443382;28;2025;-67
2023/07/27 03:46:29;;;;;;;;;;;;;;;22.16;44.36;95573.75;10440952;28;2084;-68
2023/07/27 03:51:30;;;;;;;;;;;;;;;22.17;44.22;95570.06;10441339;28;1945;-68
2023/07/27 03:56:30;;;;;;;;;;;;;;;22.15;44.16;95566.91;10444987;28;2020;-68
2023/07/27 04:01:30;;;;;;;;;;;;;;;22.16;44.15;95560.56;10445699;28;2245;-68
2023/07/27 04:06:30;;;;;;;;;;;;;;;22.15;44.19;95566.91;10443528;28;2003;-68
2023/07/27 04:11:34;;;;;;;;;;;;;;;22.15;44.21;95558.22;10441883;28;1971;-68
2023/07/27 04:16:34;;;;;;;;;;;;;;;22.13;44.04;95555.88;10441295;28;2117;-69
2023/07/27 04:21:34;;;;;;;;;;;;;;;22.14;44.15;95551.34;10444398;28;2105;-68
2023/07/27 04:26:34;;;;;;;;;;;;;;;22.13;44.08;95550.59;10439702;28;2155;-68
2023/07/27 04:31:35;;;;;;;;;;;;;;;22.12;44.11;95556.91;10441884;28;2282;-68
2023/07/27 04:36:35;;;;;;;;;;;;;;;22.13;44.17;95563.00;10442602;28;4502;-68
2023/07/27 04:41:35;;;;;;;;;;;;;;;22.11;43.79;95558.00;10444119;28;2022;-68
2023/07/27 04:46:35;;;;;;;;;;;;;;;22.10;43.97;95561.72;10444056;28;1967;-69
2023/07/27 04:51:36;;;;;;;;;;;;;;;22.10;44.09;95559.06;10438581;28;1954;-69
2023/07/27 04:56:36;;;;;;;;;;;;;;;22.10;44.00;95561.72;10439436;28;2436;-68
2023/07/27 05:01:36;;;;;;;;;;;;;;;22.10;44.19;95566.97;10443533;28;2200;-69
2023/07/27 05:06:38;;;;;;;;;;;;;;;22.09;44.05;95554.84;10458646;28;2338;-69
2023/07/27 05:11:39;;;;;;;;;;;;;;;22.09;44.02;95560.13;10444678;28;1975;-68
2023/07/27 05:16:39;;;;;;;;;;;;;;;22.09;44.12;95551.44;10442129;28;2005;-69
2023/07/27 05:21:40;;;;;;;;;;;;;;;22.08;44.10;95550.66;10442224;28;1973;-68
2023/07/27 05:26:40;;;;;;;;;;;;;;;22.07;43.91;95546.44;10447435;28;1997;-68
2023/07/27 05:31:40;;;;;;;;;;;;;;;22.08;43.88;95541.94;10441716;28;1970;-68
2023/07/27 05:36:41;;;;;;;;;;;;;;;22.08;43.75;95545.38;10438564;28;4498;-68
2023/07/27 05:41:41;;;;;;;;;;;;;;;22.07;43.99;95538.50;10444376;28;1913;-68
2023/07/27 05:46:41;;;;;;;;;;;;;;;22.06;43.84;95539.59;10445112;28;2116;-69
2023/07/27 05:51:41;;;;;;;;;;;;;;;22.07;43.77;95543.03;10441275;28;2515;-68
2023/07/27 05:56:42;;;;;;;;;;;;;;;22.06;43.83;95547.50;10439514;28;2005;-68
2023/07/27 06:01:42;;;;;;;;;;;;;;;22.07;43.67;95543.03;10437803;28;1986;-68
2023/07/27 06:06:43;;;;;;;;;;;;;;;22.05;44.05;95540.66;10443843;28;1955;-69
2023/07/27 06:11:43;;;;;;;;;;;;;;;22.05;43.75;95538.00;10444383;28;2086;-69
2023/07/27 06:16:43;;;;;;;;;;;;;;;22.05;43.99;95532.72;10437946;28;2003;-69
2023/07/27 06:21:43;;;;;;;;;;;;;;;22.05;44.19;95538.00;10440521;28;2080;-70
2023/07/27 06:26:44;;;;;;;;;;;;;;;22.04;44.26;95544.38;10437169;28;2220;-69
2023/07/27 06:31:44;;;;;;;;;;;;;;;22.04;43.91;95540.94;10440760;28;1955;-69
2023/07/27 06:36:44;;;;;;;;;;;;;;;22.03;43.91;95540.16;10438360;28;4478;-69
2023/07/27 06:41:45;;;;;;;;;;;;;;;22.03;44.21;95534.88;10460392;28;1977;-69
2023/07/27 06:46:45;;;;;;;;;;;;;;;22.04;43.89;95531.19;10442025;28;1987;-68
2023/07/27 06:51:46;;;;;;;;;;;;;;;22.02;44.01;95533.31;10435106;28;1971;-69
2023/07/27 06:56:46;;;;;;;;;;;;;;;22.02;44.16;95528.03;10437174;28;2019;-68
2023/07/27 07:01:46;;;;;;;;;;;;;;;22.03;44.13;95526.97;10445726;28;2007;-68
2023/07/27 07:06:48;;;;;;;;;;;;;;;22.02;44.10;95528.03;10452527;28;1947;-70
2023/07/27 07:11:48;;;;;;;;;;;;;;;22.02;44.27;95520.13;10449413;28;1952;-68
2023/07/27 07:16:48;;;;;;;;;;;;;;;22.03;44.07;95524.31;10462964;28;1971;-68
2023/07/27 07:21:49;;;;;;;;;;;;;;;22.02;44.14;95514.84;10449081;28;2218;-67
2023/07/27 07:26:49;;;;;;;;;;;;;;;22.02;44.07;95511.41;10447948;28;2171;-68
2023/07/27 07:31:50;;;;;;;;;;;;;;;22.02;44.24;95509.56;10451689;28;1947;-67
2023/07/27 07:36:51;;;;;;;;;;;;;;;22.02;44.16;95504.28;10448268;28;4525;-67
2023/07/27 07:41:51;;;;;;;;;;;;;;;22.01;44.46;95500.06;10447987;28;1997;-67
2023/07/27 07:46:51;;;;;;;;;;;;;;;22.02;44.40;95496.38;10465477;28;2550;-66
2023/07/27 07:51:52;;;;;;;;;;;;;;;22.01;44.41;95478.97;10448632;28;1891;-68
2023/07/27 07:56:52;;;;;;;;;;;;;;;22.03;44.34;95483.97;10447268;28;2040;-68
2023/07/27 08:01:52;;;;;;;;;;;;;;;22.02;44.45;95477.91;10445559;28;1971;-67
2023/07/27 08:06:52;;;;;;;;;;;;;;;22.02;44.15;95469.97;10450509;28;1916;-67
2023/07/27 08:11:54;;;;;;;;;;;;;;;22.02;44.43;95475.25;10450206;28;1931;-68
2023/07/27 08:16:54;;;;;;;;;;;;;;;22.02;44.44;95459.41;10449979;28;1943;-68
2023/07/27 08:21:54;;;;;;;;;;;;;;;22.02;44.41;95456.00;10449711;28;1972;-67
2023/07/27 08:26:54;;;;;;;;;;;;;;;22.02;44.10;95450.72;10446992;28;1948;-68
2023/07/27 08:31:55;;;;;;;;;;;;;;;22.02;44.59;95454.16;10445420;28;1962;-68
2023/07/27 08:36:55;;;;;;;;;;;;;;;22.02;44.64;95443.59;10447948;28;4485;-68
2023/07/27 08:41:55;;;;;;;;;;;;;;;22.03;44.62;95439.09;10445505;28;2474;-68
2023/07/27 08:46:55;;;;;;;;;;;;;;;22.04;44.61;95435.38;10448082;28;1845;-68
2023/07/27 08:51:56;;;;;;;;;;;;;;;22.04;44.68;95440.66;10446176;28;1979;-68
2023/07/27 08:56:56;;;;;;;;;;;;;;;22.04;44.35;95428.25;10442443;28;2227;-67
2023/07/27 09:01:56;;;;;;;;;;;;;;;22.04;44.69;95425.59;10445305;28;2023;-68
2023/07/27 09:06:58;;;;;;;;;;;;;;;22.04;44.78;95430.88;10448086;28;1995;-68
2023/07/27 09:11:58;;;;;;;;;;;;;;;22.04;44.50;95422.97;10457227;28;2025;-67
2023/07/27 09:16:59;;;;;;;;;;;;;;;22.05;44.75;95429.78;10449520;28;1947;-68
2023/07/27 09:21:59;;;;;;;;;;;;;;;22.05;44.89;95432.44;10445596;28;1973;-67
2023/07/27 09:27:01;;;;;;;;;;;;;;;22.05;44.93;95429.78;10442352;28;2215;-68
2023/07/27 09:32:01;;;;;;;;;;;;;;;22.06;44.93;95427.94;10441265;28;2025;-68
2023/07/27 09:37:02;;;;;;;;;;;;;;;22.06;44.90;95418.19;10442393;28;4489;-68
2023/07/27 09:42:03;;;;;;;;;;;;;;;22.06;44.85;95410.25;10441746;28;2009;-68
2023/07/27 09:47:04;;;;;;;;;;;;;;;22.06;44.78;95404.19;10447267;28;1822;-68
2023/07/27 09:52:05;;;;;;;;;;;;;;;22.06;44.79;95404.19;10444181;28;1881;-68
2023/07/27 09:57:06;;;;;;;;;;;;;;;22.03;44.85;95395.00;10438155;28;1881;-68
2023/07/27 10:02:06;;;;;;;;;;;;;;;22.05;44.90;95400.75;10439167;28;1977;-68
2023/07/27 10:07:06;;;;;;;;;;;;;;;22.05;44.75;95390.19;10458884;28;1901;-68
2023/07/27 10:12:07;;;;;;;;;;;;;;;22.06;44.84;95385.72;10473862;28;1909;-69
2023/07/27 10:17:07;;;;;;;;;;;;;;;22.05;44.56;95382.28;10441601;28;1934;-68
2023/07/27 10:22:11;;;;;;;;;;;;;;;22.05;44.56;95371.72;10452913;28;1977;-68
2023/07/27 10:27:11;;;;;;;;;;;;;;;22.04;44.98;95375.44;10441658;28;2034;-68
2023/07/27 10:32:12;;;;;;;;;;;;;;;22.05;44.86;95369.09;10443208;28;1987;-68
2023/07/27 10:37:13;;;;;;;;;;;;;;;22.06;44.83;95367.25;10440238;28;4605;-68
2023/07/27 10:42:14;;;;;;;;;;;;;;;22.04;44.86;95351.69;10441726;28;1914;-68
2023/07/27 10:47:15;;;;;;;;;;;;;;;22.07;44.91;95353.75;10444450;28;1919;-67
2023/07/27 10:52:18;;;;;;;;;;;;;;;22.07;44.84;95347.69;10440914;28;1925;-68
2023/07/27 10:57:18;;;;;;;;;;;;;;;22.08;44.56;95350.03;10439515;28;1960;-69
2023/07/27 11:02:22;;;;;;;;;;;;;;;22.07;44.46;95351.09;10442408;28;1975;-68
2023/07/27 11:07:29;;;;;;;;;;;;;;;22.08;44.57;95349.25;10439325;28;1877;-68
2023/07/27 11:12:29;;;;;;;;;;;;;;;22.07;44.33;95345.81;10444525;28;1867;-68
2023/07/27 11:17:32;;;;;;;;;;;;;;;22.07;44.47;95345.81;10442212;28;1919;-68
2023/07/27 11:22:34;;;;;;;;;;;;;;;22.07;44.48;95348.47;10462451;28;1906;-67
2023/07/27 11:27:36;;;;;;;;;;;;;;;22.08;44.14;95336.06;10443840;28;2143;-67
2023/07/27 11:32:36;;;;;;;;;;;;;;;22.07;44.33;95337.91;10440805;28;2277;-67
2023/07/27 11:37:37;;;;;;;;;;;;;;;22.08;44.41;95338.69;10440242;28;4549;-68
2023/07/27 11:42:37;;;;;;;;;;;;;;;22.08;44.25;95341.34;10441003;28;1906;-68
2023/07/27 11:47:38;;;;;;;;;;;;;;;22.08;44.49;95336.06;10441493;28;1811;-68
2023/07/27 11:52:38;;;;;;;;;;;;;;;22.09;44.13;95337.63;10447199;28;1963;-67
2023/07/27 11:57:39;;;;;;;;;;;;;;;22.08;44.40;95336.84;10449892;28;1842;-68
2023/07/27 12:02:46;;;;;;;;;;;;;;;22.09;44.34;95322.56;10450828;28;1976;-68
2023/07/27 12:07:46;;;;;;;;;;;;;;;22.08;44.40;95304.38;10444320;28;1836;-69
2023/07/27 12:12:49;;;;;;;;;;;;;;;22.09;44.62;95293.53;10442061;28;1901;-69
2023/07/27 12:17:54;;;;;;;;;;;;;;;22.09;44.48;95295.41;10442994;28;1881;-68
2023/07/27 12:22:54;;;;;;;;;;;;;;;22.08;44.38;95289.34;10441995;28;1914;-68
2023/07/27 12:27:54;;;;;;;;;;;;;;;22.09;44.97;95296.16;10441580;28;2308;-67
2023/07/27 12:32:55;;;;;;;;;;;;;;;22.10;44.75;95289.81;10440543;28;1912;-69
2023/07/27 12:37:55;;;;;;;;;;;;;;;22.11;44.68;95293.25;10447669;28;4526;-65
2023/07/27 12:42:55;;;;;;;;;;;;;;;22.10;44.57;95295.09;10448020;28;1985;-67
2023/07/27 12:47:55;;;;;;;;;;;;;;;22.11;44.63;95291.41;10449783;28;1896;-65
2023/07/27 12:52:56;;;;;;;;;;;;;;;22.11;44.65;95280.06;10440994;28;2037;-65
2023/07/27 12:57:56;;;;;;;;;;;;;;;22.11;44.87;95282.69;10442986;28;1895;-65
2023/07/27 13:02:56;;;;;;;;;;;;;;;22.12;45.02;95273.69;10440096;28;1914;-67
2023/07/27 13:07:57;;;;;;;;;;;;;;;22.11;45.12;95266.84;10440048;28;1932;-72
2023/07/27 13:12:57;;;;;;;;;;;;;;;22.12;44.81;95257.84;10440108;28;1901;-76
2023/07/27 13:18:00;;;;;;;;;;;;;;;22.14;45.61;95267.03;10457681;28;1889;-76
2023/07/27 13:23:01;;;;;;;;;;;;;;;22.14;45.92;95256.47;10437721;28;2935;-78
2023/07/27 13:28:01;;;;;;;;;;;;;;;22.17;46.00;95252.47;10442587;28;1822;-77
2023/07/27 13:33:01;;;;;;;;;;;;;;;22.16;46.43;95251.69;10442410;28;1795;-76
2023/07/27 13:38:01;;;;;;;;;;;;;;;22.16;46.69;95246.41;10447477;28;4583;-77
2023/07/27 13:43:02;;;;;;;;;;;;;;;22.17;46.31;95245.34;10440907;28;1983;-77
2023/07/27 13:48:03;;;;;;;;;;;;;;;22.18;46.53;95244.25;10436793;28;1893;-76
2023/07/27 13:53:09;;;;;;;;;;;;;;;22.19;46.35;95237.13;10440012;28;2008;-75
2023/07/27 13:58:10;;;;;;;;;;;;;;;22.18;46.73;95235.53;10437261;28;1814;-75
2023/07/27 14:03:10;;;;;;;;;;;;;;;22.18;46.59;95230.25;10437742;28;1963;-75
2023/07/27 14:08:10;;;;;;;;;;;;;;;22.20;46.59;95238.66;10433966;28;1885;-75
2023/07/27 14:13:10;;;;;;;;;;;;;;;22.18;46.48;95231.06;10437617;28;1839;-76
2023/07/27 14:18:11;;;;;;;;;;;;;;;22.19;46.62;95224.72;10441698;28;2112;-76
2023/07/27 14:23:11;;;;;;;;;;;;;;;22.19;46.63;95227.34;10438149;28;2019;-76
2023/07/27 14:28:11;;;;;;;;;;;;;;;22.18;46.87;95225.78;10450724;28;1905;-76
2023/07/27 14:33:12;;;;;;;;;;;;;;;22.18;47.11;95225.78;10426468;28;1589;-77
2023/07/27 14:38:12;;;;;;;;;;;;;;;22.19;46.76;95230.00;10433696;28;1897;-77
2023/07/27 14:43:12;;;;;;;;;;;;;;;22.18;47.07;95231.06;10434630;28;1924;-77
2023/07/27 14:48:13;;;;;;;;;;;;;;;22.19;46.80;95231.84;10438776;28;2013;-77
2023/07/27 14:53:13;;;;;;;;;;;;;;;22.17;47.19;95232.13;10434928;28;2023;-77
2023/07/27 14:58:14;;;;;;;;;;;;;;;22.18;47.19;95233.69;10439426;28;1911;-76
2023/07/27 15:03:14;;;;;;;;;;;;;;;22.19;47.24;95232.63;10464793;28;1906;-77
2023/07/27 15:08:14;;;;;;;;;;;;;;;22.18;46.68;95236.34;10440480;28;1846;-78
2023/07/27 15:13:14;;;;;;;;;;;;;;;22.18;47.29;95228.41;10446903;28;1901;-77
2023/07/27 15:18:15;;;;;;;;;;;;;;;22.19;47.16;95221.28;10442317;28;2284;-78
2023/07/27 15:23:15;;;;;;;;;;;;;;;22.18;47.18;95224.97;10447696;28;1914;-78
2023/07/27 15:28:16;;;;;;;;;;;;;;;22.18;47.07;95225.78;10444626;28;1881;-78
2023/07/27 15:33:16;;;;;;;;;;;;;;;22.17;47.26;95229.50;10441497;28;1829;-77
2023/07/27 15:38:16;;;;;;;;;;;;;;;22.17;47.12;95224.22;10443752;28;4501;-76
2023/07/27 15:43:17;;;;;;;;;;;;;;;22.17;47.49;95216.31;10444270;28;2141;-76
2023/07/27 15:48:17;;;;;;;;;;;;;;;22.15;46.27;95215.03;10439420;28;1949;-79
2023/07/27 15:53:18;;;;;;;;;;;;;;;22.10;45.84;95210.63;10433838;28;2020;-77
2023/07/27 15:58:18;;;;;;;;;;;;;;;22.08;45.68;95204.88;10443778;28;1985;-79
2023/07/27 16:03:19;;;;;;;;;;;;;;;22.04;45.50;95208.38;10446528;28;2101;-80
2023/07/27 16:08:20;;;;;;;;;;;;;;;22.00;45.37;95202.94;10461911;28;2072;-80
2023/07/27 16:13:21;;;;;;;;;;;;;;;21.99;45.41;95203.22;10445775;28;2354;-68
2023/07/27 16:18:21;;;;;;;;;;;;;;;21.96;45.17;95199.31;10446001;28;2010;-70
2023/07/27 16:23:22;;;;;;;;;;;;;;;21.93;44.98;95193.84;10446101;28;1858;-79
2023/07/27 16:28:22;;;;;;;;;;;;;;;21.89;45.07;95183.09;10440826;28;1890;-75
2023/07/27 16:33:22;;;;;;;;;;;;;;;21.93;45.76;95181.41;10440041;28;1930;-78
2023/07/27 16:38:23;;;;;;;;;;;;;;;21.97;45.89;95166.56;10442243;28;4788;-78
2023/07/27 16:43:23;;;;;;;;;;;;;;;21.98;46.30;95173.41;10444388;28;2109;-79
2023/07/27 16:48:23;;;;;;;;;;;;;;;22.02;46.55;95176.22;10440389;28;1830;-78
2023/07/27 16:53:23;;;;;;;;;;;;;;;22.03;46.86;95175.94;10450792;28;1862;-79
2023/07/27 16:58:24;;;;;;;;;;;;;;;22.05;46.67;95171.13;10443350;28;1973;-79
2023/07/27 17:03:24;;;;;;;;;;;;;;;22.04;46.71;95172.22;10451479;28;1900;-79
2023/07/27 17:08:24;;;;;;;;;;;;;;;22.07;46.61;95178.78;10450580;28;2403;-79
2023/07/27 17:13:25;;;;;;;;;;;;;;;22.06;47.00;95170.06;10446667;28;1854;-79
2023/07/27 17:18:25;;;;;;;;;;;;;;;22.07;46.52;95171.63;10442965;28;1968;-78
2023/07/27 17:23:25;;;;;;;;;;;;;;;22.09;46.70;95173.97;10446962;28;1881;-78
2023/07/27 17:28:26;;;;;;;;;;;;;;;22.08;46.70;95167.91;10444339;28;1817;-78
2023/07/27 17:33:27;;;;;;;;;;;;;;;22.08;46.98;95157.34;10444745;28;2141;-78
2023/07/27 17:38:28;;;;;;;;;;;;;;;22.09;46.80;95153.63;10442725;28;4541;-78
2023/07/27 17:43:29;;;;;;;;;;;;;;;22.10;46.72;95164.97;10447579;28;1858;-78
2023/07/27 17:48:30;;;;;;;;;;;;;;;22.09;46.96;95147.59;10447818;28;1883;-78
2023/07/27 17:53:30;;;;;;;;;;;;;;;22.09;46.82;95150.22;10474945;28;2041;-78
2023/07/27 17:58:31;;;;;;;;;;;;;;;22.09;46.60;95148.34;10448162;28;1910;-77
2023/07/27 18:03:33;;;;;;;;;;;;;;;22.11;47.01;95142.78;10437336;28;1962;-77
2023/07/27 18:08:33;;;;;;;;;;;;;;;22.09;46.69;95147.59;10438244;28;1867;-77
2023/07/27 18:13:34;;;;;;;;;;;;;;;22.09;46.76;95145.72;10441233;28;1889;-76
2023/07/27 18:18:34;;;;;;;;;;;;;;;22.09;46.74;95148.34;10445899;28;1931;-77
2023/07/27 18:23:34;;;;;;;;;;;;;;;22.09;46.76;95132.50;10438512;28;1866;-76
2023/07/27 18:28:35;;;;;;;;;;;;;;;22.08;46.95;95128.31;10444895;28;1943;-76
2023/07/27 18:33:35;;;;;;;;;;;;;;;22.09;47.08;95143.06;10440764;28;1981;-77
2023/07/27 18:38:36;;;;;;;;;;;;;;;22.09;47.07;95140.44;10445917;28;4489;-76
2023/07/27 18:43:37;;;;;;;;;;;;;;;22.10;46.55;95146.50;10444746;28;1877;-77
2023/07/27 18:48:37;;;;;;;;;;;;;;;22.09;46.50;95143.06;10442181;28;1877;-76
2023/07/27 18:53:37;;;;;;;;;;;;;;;22.07;46.30;95139.94;10430337;28;1932;-77
2023/07/27 18:58:37;;;;;;;;;;;;;;;22.06;46.16;95133.13;10442514;28;1972;-76
2023/07/27 19:03:38;;;;;;;;;;;;;;;22.06;46.23;95138.41;10443588;28;2617;-76
2023/07/27 19:08:39;;;;;;;;;;;;;;;22.07;46.53;95144.47;10445234;28;1858;-71
2023/07/27 19:13:39;;;;;;;;;;;;;;;22.06;46.32;95143.69;10443514;28;1881;-77
2023/07/27 19:18:39;;;;;;;;;;;;;;;22.06;45.96;95150.81;10440971;28;1906;-73
2023/07/27 19:23:40;;;;;;;;;;;;;;;22.04;45.99;95156.38;10447807;28;1791;-75
2023/07/27 19:28:40;;;;;;;;;;;;;;;22.03;46.17;95160.09;10450679;28;1810;-73
2023/07/27 19:33:43;;;;;;;;;;;;;;;22.02;46.10;95152.47;10448372;28;1885;-72
2023/07/27 19:38:43;;;;;;;;;;;;;;;22.04;46.20;95159.03;10479207;28;4608;-70
2023/07/27 19:43:43;;;;;;;;;;;;;;;22.03;46.27;95152.16;10448911;28;1919;-70
2023/07/27 19:48:44;;;;;;;;;;;;;;;22.05;46.24;95165.09;10446196;28;1783;-69
2023/07/27 19:53:44;;;;;;;;;;;;;;;22.01;46.18;95149.06;10473235;28;1878;-70
2023/07/27 19:58:44;;;;;;;;;;;;;;;22.01;46.25;95145.66;10447264;28;2264;-70
2023/07/27 20:03:47;;;;;;;;;;;;;;;22.01;45.95;95146.41;10445035;28;1901;-70
2023/07/27 20:08:47;;;;;;;;;;;;;;;22.00;45.79;95136.16;10443333;28;1897;-69
2023/07/27 20:13:48;;;;;;;;;;;;;;;22.00;45.83;95149.34;10448236;28;1873;-69
2023/07/27 20:18:48;;;;;;;;;;;;;;;21.98;45.95;95136.47;10447775;28;1993;-71
2023/07/27 20:23:49;;;;;;;;;;;;;;;21.98;46.10;95147.03;10450381;28;1798;-70
2023/07/27 20:28:49;;;;;;;;;;;;;;;21.98;46.22;95152.28;10447024;28;1953;-71
2023/07/27 20:33:49;;;;;;;;;;;;;;;21.98;45.95;95147.03;10444857;28;1712;-70
2023/07/27 20:38:49;;;;;;;;;;;;;;;21.99;46.04;95151.22;10441288;28;4571;-69
2023/07/27 20:43:50;;;;;;;;;;;;;;;22.00;46.11;95138.81;10457018;28;1928;-70
2023/07/27 20:48:51;;;;;;;;;;;;;;;21.99;45.94;95135.38;10445583;28;1823;-69
2023/07/27 20:53:51;;;;;;;;;;;;;;;21.97;46.23;95134.88;10440424;28;2236;-69
2023/07/27 20:58:51;;;;;;;;;;;;;;;21.96;46.13;95128.06;10441423;28;1973;-69
2023/07/27 21:03:52;;;;;;;;;;;;;;;21.97;46.26;95123.56;10441315;28;1854;-70
2023/07/27 21:08:52;;;;;;;;;;;;;;;21.96;46.40;95122.78;10438561;28;1914;-69
2023/07/27 21:13:52;;;;;;;;;;;;;;;21.95;46.26;95126.50;10442115;28;1890;-69
2023/07/27 21:18:53;;;;;;;;;;;;;;;21.96;46.18;95122.00;10442913;28;1952;-69
2023/07/27 21:23:53;;;;;;;;;;;;;;;21.94;46.03;95114.38;10437038;28;1988;-69
2023/07/27 21:28:53;;;;;;;;;;;;;;;21.93;46.15;95118.09;10441531;28;1850;-69
2023/07/27 21:33:54;;;;;;;;;;;;;;;21.93;46.43;95118.09;10451992;28;1850;-68
2023/07/27 21:38:54;;;;;;;;;;;;;;;21.92;46.01;95116.53;10438757;28;4486;-68
2023/07/27 21:43:55;;;;;;;;;;;;;;;21.92;46.21;95113.91;10442653;28;1909;-67
2023/07/27 21:48:55;;;;;;;;;;;;;;;21.91;46.35;95114.97;10441642;28;2329;-68
2023/07/27 21:53:55;;;;;;;;;;;;;;;21.92;46.38;95113.13;10436122;28;1872;-69
2023/07/27 21:58:55;;;;;;;;;;;;;;;21.91;46.21;95112.31;10438081;28;1902;-69
2023/07/27 22:03:56;;;;;;;;;;;;;;;21.90;46.21;95113.41;10436729;28;1954;-69
2023/07/27 22:08:56;;;;;;;;;;;;;;;21.90;46.37;95118.69;10436179;28;1999;-69
2023/07/27 22:13:56;;;;;;;;;;;;;;;21.90;46.25;95129.25;10445642;28;1866;-70
2023/07/27 22:18:57;;;;;;;;;;;;;;;21.90;46.44;95123.19;10467730;28;2131;-69
2023/07/27 22:23:57;;;;;;;;;;;;;;;21.90;45.95;95133.75;10453359;28;1887;-70
2023/07/27 22:28:57;;;;;;;;;;;;;;;21.90;46.37;95128.47;10440531;28;1906;-69
2023/07/27 22:33:57;;;;;;;;;;;;;;;21.90;46.04;95125.81;10434623;28;1897;-71
2023/07/27 22:38:58;;;;;;;;;;;;;;;21.91;46.13;95130.03;10437277;28;4502;-70
2023/07/27 22:43:58;;;;;;;;;;;;;;;21.90;46.38;95123.97;10441744;28;1893;-73
2023/07/27 22:48:58;;;;;;;;;;;;;;;21.90;46.52;95118.69;10439973;28;2031;-71
2023/07/27 22:53:58;;;;;;;;;;;;;;;21.90;46.47;95123.19;10439247;28;1828;-73
2023/07/27 22:58:59;;;;;;;;;;;;;;;21.90;46.41;95120.53;10435110;28;1969;-74
2023/07/27 23:03:59;;;;;;;;;;;;;;;21.88;46.35;95120.84;10441671;28;1847;-75
2023/07/27 23:09:00;;;;;;;;;;;;;;;21.88;46.31;95123.50;10435319;28;1950;-72
2023/07/27 23:14:00;;;;;;;;;;;;;;;21.87;46.41;95124.56;10445395;28;1842;-71
2023/07/27 23:19:00;;;;;;;;;;;;;;;21.87;46.55;95121.91;10441342;28;2014;-72
2023/07/27 23:24:00;;;;;;;;;;;;;;;21.86;46.18;95121.13;10439469;28;1905;-72
2023/07/27 23:29:01;;;;;;;;;;;;;;;21.85;46.41;95124.84;10438934;28;1994;-71
2023/07/27 23:34:01;;;;;;;;;;;;;;;21.84;46.27;95119.88;10437926;28;1973;-72
2023/07/27 23:39:01;;;;;;;;;;;;;;;21.84;46.47;95115.38;10438231;28;4571;-72
2023/07/27 23:44:01;;;;;;;;;;;;;;;21.83;46.49;95118.31;10439419;28;2326;-72
2023/07/27 23:49:02;;;;;;;;;;;;;;;21.83;46.35;95113.81;10443342;28;1866;-72
2023/07/27 23:54:02;;;;;;;;;;;;;;;21.83;46.67;95116.47;10446406;28;1901;-72
2023/07/27 23:59:02;;;;;;;;;;;;;;;21.82;46.70;95108.84;10448141;28;2191;-71
